Calvin, Oklahoma
Current Conditions -  °F | °C
As of 6:15 PM on Wednesday 28 Jan 2015 (Local Time) from KADH Reporting Station
Clear Clear  
Wind Chill: 21°   Ceiling: Unl
Heat Index: 21°   Visibility: 10mi
Dew Point:   Wind: 10mph
Humidity: 40%   Direction: 180°S
Pressure: 29.92"   Gusts: NA
Location:  34.97°N, 96.25°W
Report Text: KADH 290015Z AUTO 18009KT 10SM CLR 21/07 A2992 RMK AO2
Loading
Personal Weather Stations






























Interactive Weather Map New forecast layout! Learn more

10-Day Weather Forecast

Advertisements
Track Severe Weather on mobile